Sunday, May 29, 2016
17:16 UTC
  |  Log In   |  Register Free
Airport Search:

Williamsburg-Jamestown Airport
(KJGG)

Williamsburg-Jamestown Airport Diagram
No Airport Diagram Available

FAA data valid effective Mar 31 2016 - May 26 2016 (unless otherwise noted).

 
 
 
 
 
 
 
 
 
 
 
 
 
 
Current Aviation Weather for KJGG

Weather Summary


The most recent METAR observation for JGG was updated at: 12:55 UTC
METAR for KJGG is not available. Closest METAR is for KFAF
KJGG  (most recent observation was updatred at 29:16 UTC)
291655Z AUTO 00000KT 10SM CLR 26/23 A3012 RMK AO1

KFAF  (8.2 nm NW)   (most recent observation was updated at 29:16 UTC)
291658Z AUTO 15004KT 9SM -RA FEW015 SCT033 BKN060 25/19 A3010 RMK AO2 DZB20E22RAB22E44DZB44E56RAB56 SLP196 P0006 T02450189 $

KFYJ  (17.1 nm SE)   (most recent observation was updated at 29:16 UTC)
291655Z AUTO 13004KT 7SM SCT022 SCT040 BKN050 25/23 A3013 RMK AO2 P0007 T02470232

TAF for KJGG is not available.
KPHF  (12.5 nm NW)   (most recent observation was updatred at 29:16 UTC)
AMD 291607Z 2916/3012 08007KT P6SM VCSH SCT020 BKN045 TEMPO 2916/2919 3SM SHRA BKN020 FM292000 12007KT 4SM RA BR BKN025 BKN070 OVC120


KLFI  (19.4 nm NW)   (most recent observation was updatred at 29:17 UTC)
291700Z 2917/3023 12009KT 8000 -RA BKN020 BKN060 QNH3003INS TEMPO 2917/2923 14010G15KT -TSRA BKN020CB OVC075 BECMG 3002/3003 14009KT 4800 -RA BR BKN005 OVC020 QNH2999INS BECMG 3014/3015 VRB06KT 8000 -RA OVC018 QNH2997INS BECMG 3016/3017 VRB06KT 8000 -RA BKN020 OVC035 QNH2996INS BECMG 3020/3021 VRB06KT 8000 -RA BKN015 OVC035 QNH2996INS BECMG 3022/3023 VRB06KT 4800 -RA BR BKN005 OVC025 QNH2996INS TX27/3017Z TN20/3006Z


KNGU  (27.3 nm NW)   (most recent observation was updatred at UTC)
2915/3015 08009KT 9999 BKN020 BKN050 BKN120 QNH3006INS FM291800 09009KT 9999 VCTS SCT020CB BKN050 BKN120 QNH3000INS TEMPO 2919/3000 VRB15G25KT 4800 TSRA BR BKN020CB BKN050 OVC120 TEMPO 3000/3003 VRB15G25KT 4800 TSRA BR BKN020CB BKN050 OVC120 FM300300 12005KT 9000 SHRA SCT020 BKN050 OVC100 QNH2998INS FM300600 15005KT 9999 VCSH SCT015 BKN040 QNH2993INS TEMPO 3009/3015 6000 SHRA BR BKN015 OVC040 T26/2917Z T21/3009Z FN00140
GlobalAir.com is loading additional information.
 Current Weather at JGG
82.0 F° (28.0 C°)

North winds at 0.0 mph
Pressure:
30.13 in
Humidity:
74%
Wind:
North at 0.0 mph
Dew Point:
73.4 F° (23.0 C°)
Visibility:
10.00 mi
JGG NOAA Radar




Find All Airport Services Find A Hotel Find A Rental Car Find A Golf Course Find A Restaurant $100 Hamburger



Airport Weather Forecast for KJGG

Translated METAR for KJGG (1655 UTC)
METAR:
KJGG 291655Z AUTO 00000KT 10SM CLR 26/23 A3012 RMK AO1
Conditions at:
KJGG (Williamsburg-Jamestown, VA) observed 1655 UTC 29 May 2016
Temperature:
26°C (78.8°F)
Dewpoint:
23°C (73.4°F) [RH = 83.6]
Pressure:
30.12 inches Hg (1020 mb)
Winds:
from the N (000 degrees) at 0 mph (0 knots: 0 m/s)
Visibility:
10 mile(s)
Ceiling:
at least 12,000 feet AGL
Clouds:
Clear below 12,000 feet AGL
Remarks:
site is un-manned
site is automated and does NOT have a precipitation sensor

Translated TAF for KPHF (Newport News/Williamsburg Intl, VA) (1607 UTC)
TAF text:
KPHF 291607Z 2916/3012 08007KT P6SM VCSH SCT020 BKN045
Forecast period:
Sunday May 29 2016 16:00 UTC - Monday May 30 2016 12:00 UTC
Forecast type:
FROM: standard forecast or significant change
Winds:
from the E (080 degrees) at 8.1 mph (7 knots: 3.6 m/s)
Visibility:
6 or more mile(s) (9.7+ km)
Ceiling:
4,500 feet AGL
Clouds:
Scattered Clouds at 2,000 feet AGL
Broken Cloud Cover at 4,500 feet AGL
Weather:
Moderate In Vicinity Shower(s)
TAF text:
2916/2919 3SM SHRA BKN020
Forecast period:
Monday May 30 2016 16:00 UTC - Monday May 30 2016 19:00 UTC
Forecast type:
FROM: standard forecast or significant change
Winds:
Visibility:
3 mile(s) (4.8 km)
Ceiling:
2,000 feet AGL
Clouds:
Broken Cloud Cover at 2,000 feet AGL
Weather:
Moderate Shower(s) Rain
TAF text:
FM292000 12007KT 4SM RA BR BKN025 BKN070 OVC120
Forecast period:
Sunday May 29 2016 20:00 UTC - Monday May 30 2016 12:00 UTC
Forecast type:
FROM: standard forecast or significant change
Winds:
from the ESE (120 degrees) at 8.1 mph (7 knots: 3.6 m/s)
Visibility:
4 mile(s) (6.4 km)
Ceiling:
2,500 feet AGL
Clouds:
Broken Cloud Cover at 2,500 feet AGL
Broken Cloud Cover at 7,000 feet AGL
Overcast Skies at 12,000 feet AGL
Weather:
Moderate Rain
FBO's on the Field
FBO Company Facility Photos Services Transportation Aviation Fuel Prices: Prices include tax
Catering Weather Repair Courtesy Rental Type 100LL JetA JetA+ MOGAS 8087
 
Williamsburg-Jamestown

This FBO has not yet been rated
FS:Shell
Last Updated: Apr-26
Login to update fuel prices
SS:
Contact Williamsburg-JamestownMore FBO Information
 
Add another FBO Facility Photos Catering Weather Repair Courtesy Rental Type 100LL JetA JetA+ MOGAS 8087
Services Transportation Aviation Fuel Prices: Prices include tax


model-print
model-print
model-print
model-print